Time;durP1;ratioP1;P1;durP2;ratioP2;P2;SDS_P1;SDS_P2;PMS_P1;PMS_P2;Temp;Humidity;BMP_temperature;BMP_pressure;BME280_temperature;BME280_humidity;BME280_pressure;Samples;Min_cycle;Max_cycle;Signal;HPM_P1;HPM_P2
2022/04/22 00:01:17;;;;;;;2.80;1.00;;;10.80;99.90;;;;;;4195772;28;20381;-50
2022/04/22 00:03:19;;;;;;;1.50;1.13;;;10.60;99.90;;;;;;4195881;28;20048;-50
2022/04/22 00:05:22;;;;;;;2.67;1.00;;;10.60;99.90;;;;;;4195490;28;20042;-49
2022/04/22 00:07:28;;;;;;;1.10;1.10;;;10.60;99.90;;;;;;4202711;28;20118;-47
2022/04/22 00:09:30;;;;;;;1.95;0.90;;;10.70;99.90;;;;;;4195479;28;20036;-47
2022/04/22 00:11:32;;;;;;;1.08;1.08;;;10.70;99.90;;;;;;4201173;28;20054;-49
2022/04/22 00:13:41;;;;;;;1.10;1.05;;;10.60;99.90;;;;;;4202481;28;20032;-49
2022/04/22 00:15:43;;;;;;;2.67;1.20;;;10.60;99.90;;;;;;4195589;28;20040;-50
2022/04/22 00:17:45;;;;;;;1.00;1.00;;;10.60;99.90;;;;;;4207223;28;20036;-49
2022/04/22 00:19:48;;;;;;;1.10;1.10;;;10.50;99.90;;;;;;4215397;28;20109;-46
2022/04/22 00:21:50;;;;;;;1.77;1.10;;;10.50;99.90;;;;;;4195776;28;20135;-47
2022/04/22 00:23:52;;;;;;;2.47;1.48;;;10.50;99.90;;;;;;4195393;28;20037;-47
2022/04/22 00:25:56;;;;;;;1.10;1.10;;;10.60;99.90;;;;;;4194035;28;20033;-48
2022/04/22 00:27:58;;;;;;;1.13;1.13;;;10.60;99.90;;;;;;4195112;28;20044;-49
2022/04/22 00:30:00;;;;;;;4.47;1.55;;;10.50;99.90;;;;;;4195333;28;20086;-50
2022/04/22 00:32:03;;;;;;;1.77;1.10;;;10.40;99.90;;;;;;4195359;28;20407;-48
2022/04/22 00:34:05;;;;;;;1.10;1.10;;;10.40;99.90;;;;;;4195135;28;20041;-49
2022/04/22 00:36:07;;;;;;;1.48;1.38;;;10.40;99.90;;;;;;4209020;28;20043;-50
2022/04/22 00:38:10;;;;;;;1.10;1.10;;;10.40;99.90;;;;;;4215842;28;20052;-48
2022/04/22 00:40:12;;;;;;;1.95;1.20;;;10.40;99.90;;;;;;4195030;28;20406;-51
2022/04/22 00:42:14;;;;;;;1.10;1.10;;;10.40;99.90;;;;;;4195198;28;20074;-51
2022/04/22 00:44:16;;;;;;;7.75;1.52;;;10.40;99.90;;;;;;4216896;28;20073;-51
2022/04/22 00:46:20;;;;;;;3.22;1.45;;;10.30;99.90;;;;;;4194789;28;20037;-50
2022/04/22 00:48:23;;;;;;;3.80;1.63;;;10.30;99.90;;;;;;4195102;28;20075;-52
2022/04/22 00:50:28;;;;;;;1.73;1.45;;;10.30;99.90;;;;;;4212573;28;20059;-52
2022/04/22 00:52:30;;;;;;;3.10;1.30;;;10.30;99.90;;;;;;4205062;28;20044;-52
2022/04/22 00:54:38;;;;;;;1.30;1.30;;;10.30;99.90;;;;;;4194976;28;20044;-51
2022/04/22 00:56:40;;;;;;;1.88;1.65;;;10.30;99.90;;;;;;4200492;28;20047;-50
2022/04/22 00:58:45;;;;;;;2.00;1.85;;;10.30;99.90;;;;;;4200296;28;20041;-52
2022/04/22 01:00:47;;;;;;;1.98;1.40;;;10.20;99.90;;;;;;4194856;28;20044;-51
2022/04/22 01:02:50;;;;;;;1.58;1.48;;;10.20;99.90;;;;;;4194987;28;20044;-50
2022/04/22 01:09:47;;;;;;;2.03;1.55;;;10.20;99.90;;;;;;4194753;28;20369;-50
2022/04/22 01:11:52;;;;;;;1.70;1.70;;;10.10;99.90;;;;;;4202256;28;20136;-51
2022/04/22 01:13:54;;;;;;;1.85;1.20;;;10.10;99.90;;;;;;4194396;28;20037;-50
2022/04/22 01:15:57;;;;;;;1.50;1.35;;;10.10;99.90;;;;;;4194709;28;20036;-50
2022/04/22 01:17:59;;;;;;;1.40;1.30;;;10.10;99.90;;;;;;4210190;28;20395;-50
2022/04/22 01:20:03;;;;;;;;;;;10.10;99.90;;;;;;4207381;28;20040;-48
2022/04/22 01:22:08;;;;;;;1.40;1.40;;;10.10;99.90;;;;;;4194761;28;20347;-50
2022/04/22 01:24:10;;;;;;;2.05;1.13;;;10.10;99.90;;;;;;4194082;28;20048;-51
2022/04/22 01:26:13;;;;;;;2.78;2.58;;;10.00;99.90;;;;;;4194382;28;20052;-49
2022/04/22 01:28:16;;;;;;;4.70;1.38;;;10.00;99.90;;;;;;4194349;28;20140;-50
2022/04/22 01:30:22;;;;;;;1.95;1.45;;;10.00;99.90;;;;;;4194459;28;20064;-51
2022/04/22 01:32:28;;;;;;;3.97;1.50;;;10.10;99.90;;;;;;4208142;28;20086;-48
2022/04/22 01:34:30;;;;;;;1.80;1.35;;;10.10;99.90;;;;;;4195331;28;20443;-49
2022/04/22 01:36:32;;;;;;;1.50;1.50;;;10.00;99.90;;;;;;4194295;28;20029;-51
2022/04/22 01:38:34;;;;;;;5.60;2.42;;;10.00;99.90;;;;;;4194090;28;20082;-50
2022/04/22 01:40:36;;;;;;;3.25;1.30;;;10.00;99.90;;;;;;4194079;28;20415;-49
2022/04/22 01:42:39;;;;;;;1.58;1.50;;;10.00;99.90;;;;;;4194042;28;20568;-50
2022/04/22 01:44:41;;;;;;;1.40;1.25;;;10.10;99.90;;;;;;4212385;28;20040;-47
2022/04/22 01:46:43;;;;;;;1.38;1.27;;;10.00;99.90;;;;;;4194231;28;20629;-48
2022/04/22 01:48:45;;;;;;;1.58;1.40;;;10.00;99.90;;;;;;4194218;28;20469;-49
2022/04/22 01:50:47;;;;;;;2.67;1.13;;;10.00;99.90;;;;;;4218313;28;20040;-48
2022/04/22 01:52:50;;;;;;;2.88;1.30;;;10.00;99.90;;;;;;4196663;28;20043;-50
2022/04/22 01:54:54;;;;;;;1.23;1.10;;;10.00;99.90;;;;;;4193750;28;20129;-53
2022/04/22 01:56:56;;;;;;;2.88;1.15;;;10.00;99.90;;;;;;4194076;28;20594;-52
2022/04/22 01:58:58;;;;;;;1.35;1.25;;;10.00;99.90;;;;;;4193949;28;20033;-52
2022/04/22 02:01:00;;;;;;;2.15;1.65;;;10.00;99.90;;;;;;4193998;28;20709;-51
2022/04/22 02:03:02;;;;;;;2.30;1.00;;;10.10;99.90;;;;;;4193912;28;20052;-52
2022/04/22 02:05:08;;;;;;;1.10;1.10;;;10.10;99.90;;;;;;4193904;28;20135;-51
2022/04/22 02:07:13;;;;;;;1.08;1.08;;;10.10;99.90;;;;;;4194110;28;20144;-50
2022/04/22 02:09:17;;;;;;;1.10;1.10;;;10.10;99.90;;;;;;4193219;28;20106;-53
2022/04/22 02:11:19;;;;;;;3.70;1.10;;;10.10;99.90;;;;;;4197157;28;20123;-52
2022/04/22 02:13:21;;;;;;;4.60;1.35;;;10.10;99.90;;;;;;4196567;28;20037;-53
2022/04/22 02:15:26;;;;;;;1.13;1.13;;;10.00;99.90;;;;;;4194206;28;20041;-54
2022/04/22 02:17:29;;;;;;;1.65;1.23;;;10.10;99.90;;;;;;4195784;28;20036;-53
2022/04/22 02:19:31;;;;;;;1.42;1.20;;;10.00;99.90;;;;;;4193738;28;20051;-54
2022/04/22 02:21:33;;;;;;;1.23;1.13;;;10.00;99.90;;;;;;4193634;28;20310;-54
2022/04/22 02:23:36;;;;;;;3.05;1.20;;;10.00;99.90;;;;;;4193697;28;20044;-54
2022/04/22 02:25:38;;;;;;;1.30;1.20;;;10.00;99.90;;;;;;4193656;28;20051;-54
2022/04/22 02:30:04;;;;;;;1.27;1.27;;;10.00;99.90;;;;;;4193957;28;20262;-54
2022/04/22 02:32:06;;;;;;;1.20;1.20;;;10.00;99.90;;;;;;4193564;28;20040;-53
2022/04/22 02:34:09;;;;;;;;;;;10.00;99.90;;;;;;4193876;28;20106;-53
2022/04/22 02:36:11;;;;;;;3.42;1.20;;;10.00;99.90;;;;;;4193355;28;20375;-54
2022/04/22 02:38:13;;;;;;;;;;;10.00;99.90;;;;;;4193898;28;20099;-52
2022/04/22 02:45:26;;;;;;;1.80;1.55;;;10.10;99.90;;;;;;4193148;28;19977;-52
2022/04/22 02:47:19;;;;;;;1.00;1.00;;;10.00;99.90;;;;;;4193289;28;20427;-54
2022/04/22 02:49:21;;;;;;;1.20;1.20;;;10.00;99.90;;;;;;4193625;28;20036;-53
2022/04/22 02:51:24;;;;;;;1.30;1.20;;;10.00;99.90;;;;;;4216711;28;20438;-54
2022/04/22 02:53:26;;;;;;;;;;;10.00;99.90;;;;;;4193778;28;20044;-52
2022/04/22 02:55:28;;;;;;;2.95;1.30;;;10.00;99.90;;;;;;4193492;28;19924;-53
2022/04/22 02:57:33;;;;;;;1.17;1.17;;;10.00;99.90;;;;;;4193487;28;20044;-53
2022/04/22 02:59:37;;;;;;;1.00;1.00;;;10.00;99.90;;;;;;4193381;28;20048;-53
2022/04/22 03:01:43;;;;;;;1.67;1.15;;;10.00;99.90;;;;;;4193592;28;20049;-53
2022/04/22 03:03:48;;;;;;;1.10;1.10;;;9.90;99.90;;;;;;4193473;28;20056;-52
2022/04/22 03:05:51;;;;;;;1.20;1.20;;;10.00;99.90;;;;;;4193181;28;20127;-53
2022/04/22 03:07:53;;;;;;;1.50;1.40;;;10.00;99.90;;;;;;4193637;28;20067;-53
2022/04/22 03:09:56;;;;;;;3.53;1.10;;;9.90;99.90;;;;;;4192885;28;20119;-52
2022/04/22 03:11:59;;;;;;;1.20;1.17;;;10.00;99.90;;;;;;4197510;28;20040;-53
2022/04/22 03:14:03;;;;;;;1.33;1.20;;;10.00;99.90;;;;;;4193055;28;20496;-53
2022/04/22 03:16:07;;;;;;;1.42;1.42;;;10.00;99.90;;;;;;4191955;28;20036;-52
2022/04/22 03:18:10;;;;;;;1.30;1.20;;;10.00;99.90;;;;;;4206005;28;20041;-52
2022/04/22 03:20:12;;;;;;;1.67;1.10;;;10.00;99.90;;;;;;4194854;28;20127;-53
2022/04/22 03:22:16;;;;;;;2.80;1.50;;;9.90;99.90;;;;;;4196404;28;20045;-52
2022/04/22 03:24:18;;;;;;;1.10;1.10;;;9.90;99.90;;;;;;4197512;28;20565;-53
2022/04/22 03:26:20;;;;;;;1.52;1.42;;;10.00;99.90;;;;;;4196082;28;20040;-52
2022/04/22 03:28:29;;;;;;;1.05;1.05;;;9.90;99.90;;;;;;4196101;28;20714;-51
2022/04/22 03:30:34;;;;;;;2.95;1.40;;;9.90;99.90;;;;;;4196046;28;20040;-53
2022/04/22 03:32:36;;;;;;;2.35;1.20;;;9.90;99.90;;;;;;4196311;28;20066;-54
2022/04/22 03:34:39;;;;;;;1.50;1.20;;;9.90;99.90;;;;;;4195958;28;20035;-54
2022/04/22 03:36:41;;;;;;;1.10;1.10;;;9.90;99.90;;;;;;4196490;28;20049;-52
2022/04/22 03:38:43;;;;;;;1.30;1.30;;;9.90;99.90;;;;;;4196169;28;20504;-54
2022/04/22 03:40:47;;;;;;;1.33;1.20;;;9.90;99.90;;;;;;4196203;28;20028;-52
2022/04/22 03:42:49;;;;;;;1.00;1.00;;;9.90;99.90;;;;;;4196123;28;20395;-53
2022/04/22 03:44:51;;;;;;;2.40;1.98;;;9.90;99.90;;;;;;4207827;28;20048;-53
2022/04/22 03:46:53;;;;;;;1.67;1.65;;;9.90;99.90;;;;;;4195854;28;20032;-52
2022/04/22 03:48:57;;;;;;;1.10;1.10;;;9.90;99.90;;;;;;4196813;28;20118;-53
2022/04/22 03:50:59;;;;;;;1.10;1.10;;;9.90;99.90;;;;;;4216793;28;20055;-53
2022/04/22 03:53:05;;;;;;;3.60;1.10;;;9.90;99.90;;;;;;4196004;28;20522;-52
2022/04/22 03:55:08;;;;;;;1.20;1.17;;;9.90;99.90;;;;;;4196377;28;20053;-52
2022/04/22 03:59:31;;;;;;;3.50;1.25;;;9.90;99.90;;;;;;4195791;28;20048;-54
2022/04/22 04:01:35;;;;;;;2.28;1.10;;;9.90;99.90;;;;;;4195689;28;20052;-53
2022/04/22 04:03:37;;;;;;;1.30;1.30;;;9.80;99.90;;;;;;4195929;28;20442;-53
2022/04/22 04:05:41;;;;;;;1.30;1.20;;;9.80;99.90;;;;;;4196389;28;20044;-52
2022/04/22 04:07:43;;;;;;;4.22;1.10;;;9.90;99.90;;;;;;4206921;28;20398;-53
2022/04/22 04:16:48;;;;;;;1.25;1.20;;;9.80;99.90;;;;;;4195721;28;20054;-53
2022/04/22 04:23:14;;;;;;;1.10;1.10;;;9.80;99.90;;;;;;4214977;28;20053;-53
2022/04/22 04:23:37;;;;;;;1.10;1.10;;;9.80;99.90;;;;;;4196781;28;20088;-53
2022/04/22 04:25:40;;;;;;;1.40;1.00;;;9.90;99.90;;;;;;4204223;28;20183;-53
2022/04/22 04:27:42;;;;;;;;;;;9.80;99.90;;;;;;4198990;28;20094;-52
2022/04/22 04:29:44;;;;;;;1.30;1.30;;;9.80;99.90;;;;;;4196861;28;19928;-49
2022/04/22 04:31:47;;;;;;;1.40;1.40;;;9.80;99.90;;;;;;4201055;28;20056;-53
2022/04/22 04:33:49;;;;;;;3.65;1.50;;;9.80;99.90;;;;;;4199008;28;20044;-51
2022/04/22 04:35:51;;;;;;;2.05;1.95;;;9.80;99.90;;;;;;4195640;28;20102;-53
2022/04/22 04:37:53;;;;;;;23.48;1.98;;;9.80;99.90;;;;;;4195379;28;20700;-51
2022/04/22 04:39:58;;;;;;;13.45;1.90;;;9.80;99.90;;;;;;4195420;28;20608;-51
2022/04/22 04:42:02;;;;;;;6.25;1.80;;;9.90;99.90;;;;;;4195300;28;20072;-51
2022/04/22 04:44:04;;;;;;;13.05;2.40;;;9.90;99.90;;;;;;4206030;28;20088;-52
2022/04/22 04:46:07;;;;;;;101.28;8.38;;;9.80;99.90;;;;;;4195633;28;20490;-52
2022/04/22 04:48:10;;;;;;;9.20;2.30;;;9.80;99.90;;;;;;4211874;28;20056;-52
2022/04/22 04:50:12;;;;;;;14.00;2.38;;;9.80;99.90;;;;;;4211146;28;20048;-53
2022/04/22 04:52:14;;;;;;;60.13;5.07;;;9.80;99.90;;;;;;4200071;28;20155;-51
2022/04/22 04:54:16;;;;;;;1.60;1.60;;;9.80;99.90;;;;;;4195052;28;20114;-50
2022/04/22 04:56:19;;;;;;;2.47;1.80;;;9.80;99.90;;;;;;4198854;28;20048;-51
2022/04/22 04:58:21;;;;;;;20.45;3.08;;;9.80;99.90;;;;;;4196147;28;20135;-52
2022/04/22 05:00:23;;;;;;;9.23;2.38;;;9.80;99.90;;;;;;4197875;28;20041;-53
2022/04/22 05:02:25;;;;;;;17.48;3.45;;;9.80;99.90;;;;;;4195276;28;20098;-52
2022/04/22 05:04:27;;;;;;;1.70;1.70;;;9.80;99.90;;;;;;4195021;28;20052;-54
2022/04/22 05:06:30;;;;;;;14.27;3.33;;;9.80;99.90;;;;;;4194946;28;20094;-54
2022/04/22 05:08:32;;;;;;;11.77;2.40;;;9.80;99.90;;;;;;4215998;28;20538;-53
2022/04/22 05:10:36;;;;;;;2.83;2.60;;;9.80;99.90;;;;;;4194703;28;20048;-52
2022/04/22 05:12:38;;;;;;;1.20;1.20;;;9.80;99.90;;;;;;4197134;28;20047;-54
2022/04/22 05:14:40;;;;;;;2.15;1.98;;;9.90;99.90;;;;;;4194689;28;20102;-52
2022/04/22 05:16:42;;;;;;;1.75;1.65;;;9.90;99.90;;;;;;4200010;28;20040;-53
2022/04/22 05:18:44;;;;;;;1.10;1.10;;;9.90;99.90;;;;;;4210779;28;20131;-52
2022/04/22 05:20:48;;;;;;;1.20;1.20;;;9.80;99.90;;;;;;4194534;28;20447;-53
2022/04/22 05:22:50;;;;;;;1.55;1.45;;;9.80;99.90;;;;;;4194501;28;20524;-53
2022/04/22 05:24:52;;;;;;;1.20;1.20;;;9.80;99.90;;;;;;4194404;28;20450;-54
2022/04/22 05:26:54;;;;;;;1.10;1.10;;;9.80;99.90;;;;;;4194964;28;20059;-53
2022/04/22 05:28:56;;;;;;;1.20;1.20;;;9.80;99.90;;;;;;4206175;28;20059;-51
2022/04/22 05:33:19;;;;;;;1.10;1.10;;;9.80;99.90;;;;;;4194469;28;20040;-54
2022/04/22 05:35:27;;;;;;;1.10;1.10;;;9.80;99.90;;;;;;4199394;28;20086;-53
2022/04/22 05:37:45;;;;;;;1.20;1.20;;;9.90;99.90;;;;;;4204267;28;20048;-50
2022/04/22 05:39:47;;;;;;;1.20;1.20;;;9.80;99.90;;;;;;4194881;28;20052;-51
2022/04/22 05:41:50;;;;;;;1.25;1.25;;;9.90;99.90;;;;;;4194197;28;20115;-51
2022/04/22 05:43:52;;;;;;;1.10;1.10;;;9.80;99.90;;;;;;4200646;28;20455;-52
2022/04/22 05:45:54;;;;;;;1.00;1.00;;;9.80;99.90;;;;;;4194357;28;20106;-52
2022/04/22 05:47:59;;;;;;;3.45;3.20;;;9.80;99.90;;;;;;4194090;28;20047;-50
2022/04/22 05:50:04;;;;;;;2.17;2.08;;;9.80;99.90;;;;;;4210893;28;20122;-52
2022/04/22 05:52:06;;;;;;;1.60;1.52;;;9.80;99.90;;;;;;4194365;28;20077;-52
2022/04/22 05:54:08;;;;;;;1.20;1.20;;;9.90;99.90;;;;;;4194421;28;20051;-51
2022/04/22 05:56:10;;;;;;;1.30;1.30;;;9.90;99.90;;;;;;4200964;28;20038;-53
2022/04/22 05:58:12;;;;;;;1.10;1.10;;;9.90;99.90;;;;;;4193703;28;20084;-53
2022/04/22 06:00:20;;;;;;;1.10;1.10;;;9.80;99.90;;;;;;4193108;28;20060;-51
2022/04/22 06:02:22;;;;;;;1.33;1.20;;;9.80;99.90;;;;;;4194153;28;20052;-50
2022/04/22 06:04:24;;;;;;;1.30;1.30;;;9.80;99.90;;;;;;4193927;28;20052;-50
2022/04/22 06:06:27;;;;;;;1.30;1.30;;;9.90;99.90;;;;;;4193793;28;20446;-50
2022/04/22 06:10:49;;;;;;;1.20;1.20;;;9.80;99.90;;;;;;4193898;28;20407;-50
2022/04/22 06:12:51;;;;;;;1.15;1.15;;;9.90;99.90;;;;;;4194927;28;20408;-51
2022/04/22 06:14:53;;;;;;;1.40;1.40;;;9.90;99.90;;;;;;4193917;28;20496;-50
2022/04/22 06:16:56;;;;;;;1.30;1.30;;;9.90;99.90;;;;;;4199374;28;20867;-50
2022/04/22 06:19:00;;;;;;;1.38;1.20;;;9.80;99.90;;;;;;4210956;28;20718;-48
2022/04/22 06:21:02;;;;;;;1.92;1.30;;;9.80;99.90;;;;;;4193947;28;20052;-52
2022/04/22 06:23:12;;;;;;;1.95;1.95;;;9.80;99.90;;;;;;4193810;28;20059;-49
2022/04/22 06:25:14;;;;;;;1.38;1.38;;;9.80;99.90;;;;;;4194792;28;20053;-51
2022/04/22 06:27:25;;;;;;;1.65;1.65;;;9.80;99.90;;;;;;4210635;28;20048;-52
2022/04/22 06:29:28;;;;;;;2.53;2.38;;;9.90;99.90;;;;;;4193449;28;20136;-50
2022/04/22 06:31:30;;;;;;;1.67;1.67;;;9.90;99.90;;;;;;4193549;28;20053;-51
2022/04/22 06:33:33;;;;;;;2.65;2.13;;;9.90;99.90;;;;;;4193630;28;20045;-51
2022/04/22 06:35:35;;;;;;;1.08;1.08;;;9.90;99.90;;;;;;4193710;28;20061;-48
2022/04/22 06:37:46;;;;;;;1.40;1.40;;;9.90;99.90;;;;;;4193748;28;20052;-51
2022/04/22 06:46:50;;;;;;;1.60;1.50;;;9.90;99.90;;;;;;4193672;28;20522;-52
2022/04/22 06:48:53;;;;;;;2.72;1.75;;;10.00;99.90;;;;;;4193267;28;20051;-52
2022/04/22 06:50:56;;;;;;;2.17;2.08;;;10.00;99.90;;;;;;4206792;28;20052;-49
2022/04/22 06:52:58;;;;;;;2.13;2.03;;;10.00;99.90;;;;;;4193704;28;20080;-49
2022/04/22 06:55:00;;;;;;;2.53;2.53;;;10.10;99.90;;;;;;4192688;28;20074;-52
2022/04/22 06:57:03;;;;;;;2.00;2.00;;;10.10;99.90;;;;;;4193624;28;20451;-52
2022/04/22 06:59:06;;;;;;;1.50;1.50;;;10.10;99.90;;;;;;4193322;28;20060;-52
2022/04/22 07:01:08;;;;;;;1.92;1.83;;;10.10;99.90;;;;;;4193544;28;20541;-50
2022/04/22 07:03:31;;;;;;;1.88;1.88;;;10.10;99.90;;;;;;4193297;28;20128;-51
2022/04/22 07:05:35;;;;;;;2.03;1.92;;;10.10;99.90;;;;;;4193241;28;20766;-51
2022/04/22 07:07:37;;;;;;;1.60;1.60;;;10.10;99.90;;;;;;4208338;28;20048;-50
2022/04/22 07:09:41;;;;;;;1.77;1.77;;;10.10;99.90;;;;;;4207709;28;20047;-51
2022/04/22 07:11:44;;;;;;;2.15;1.92;;;10.10;99.90;;;;;;4194220;28;20047;-50
2022/04/22 07:13:47;;;;;;;1.45;1.45;;;10.10;99.90;;;;;;4197618;28;20144;-52
2022/04/22 07:15:56;;;;;;;1.17;1.17;;;10.20;99.90;;;;;;4193381;28;20048;-53
2022/04/22 07:17:59;;;;;;;1.00;1.00;;;10.10;99.90;;;;;;4204335;28;20430;-52
2022/04/22 07:20:09;;;;;;;1.10;1.10;;;10.10;99.90;;;;;;4201683;28;20500;-49
2022/04/22 07:22:17;;;;;;;1.10;1.10;;;10.10;99.90;;;;;;4193297;28;20638;-52
2022/04/22 07:24:20;;;;;;;1.95;1.10;;;10.10;99.90;;;;;;4208701;28;20044;-53
2022/04/22 07:26:23;;;;;;;1.08;1.08;;;10.20;99.90;;;;;;4196911;28;20114;-52
2022/04/22 07:28:28;;;;;;;1.30;1.30;;;10.20;99.90;;;;;;4192787;28;20455;-51
2022/04/22 07:30:31;;;;;;;1.02;1.02;;;10.20;99.90;;;;;;4193400;28;20053;-52
2022/04/22 07:32:37;;;;;;;1.42;1.00;;;10.30;99.90;;;;;;4192988;28;20381;-54
2022/04/22 07:34:39;;;;;;;1.42;1.42;;;10.30;99.90;;;;;;4191899;28;20436;-52
2022/04/22 07:36:43;;;;;;;1.20;1.20;;;10.20;99.90;;;;;;4194515;28;20052;-53
2022/04/22 07:38:45;;;;;;;1.85;1.85;;;10.30;99.90;;;;;;4193028;28;20057;-53
2022/04/22 07:40:51;;;;;;;1.10;1.10;;;10.30;99.90;;;;;;4193281;28;20095;-53
2022/04/22 07:47:41;;;;;;;1.33;1.20;;;10.10;99.90;;;;;;4193475;28;20124;-53
2022/04/22 07:49:43;;;;;;;3.60;1.30;;;10.20;99.90;;;;;;4212133;28;20085;-54
2022/04/22 07:51:45;;;;;;;4.25;3.90;;;10.10;99.90;;;;;;4195997;28;20045;-53
2022/04/22 07:53:47;;;;;;;2.95;2.75;;;10.20;99.90;;;;;;4193283;28;20048;-54
2022/04/22 07:55:49;;;;;;;2.30;2.10;;;10.20;99.90;;;;;;4192787;28;20086;-53
2022/04/22 07:57:51;;;;;;;1.17;1.17;;;10.20;99.90;;;;;;4193151;28;20514;-54
2022/04/22 07:59:54;;;;;;;1.42;1.42;;;10.20;99.90;;;;;;4192918;28;20040;-53
2022/04/22 08:01:59;;;;;;;1.38;1.38;;;10.30;99.90;;;;;;4192733;28;20044;-53
2022/04/22 08:04:03;;;;;;;1.17;1.17;;;10.30;99.90;;;;;;4192880;28;20506;-53
2022/04/22 08:06:06;;;;;;;1.27;1.27;;;10.40;99.90;;;;;;4193463;28;20044;-53
2022/04/22 08:08:09;;;;;;;1.00;1.00;;;10.40;99.90;;;;;;4214331;28;20095;-52
2022/04/22 08:10:12;;;;;;;1.00;1.00;;;10.40;99.90;;;;;;4214596;28;20399;-51
2022/04/22 08:12:15;;;;;;;1.10;1.10;;;10.30;99.90;;;;;;4206950;28;20560;-51
2022/04/22 08:14:17;;;;;;;1.10;1.10;;;10.40;99.90;;;;;;4201414;28;20086;-53
2022/04/22 08:16:19;;;;;;;1.10;1.10;;;10.50;99.90;;;;;;4195581;28;20400;-52
2022/04/22 08:18:21;;;;;;;1.20;1.20;;;10.50;99.90;;;;;;4203785;28;20052;-51
2022/04/22 08:20:23;;;;;;;1.02;1.02;;;10.60;99.90;;;;;;4195668;28;20131;-50
2022/04/22 08:22:25;;;;;;;1.10;1.10;;;10.60;99.90;;;;;;4195812;28;20113;-51
2022/04/22 08:24:28;;;;;;;1.40;1.40;;;10.70;99.90;;;;;;4195386;28;20059;-49
2022/04/22 08:26:32;;;;;;;1.52;1.10;;;10.70;99.90;;;;;;4195558;28;20546;-49
2022/04/22 08:28:34;;;;;;;1.40;1.40;;;10.60;99.90;;;;;;4195404;28;20158;-51
2022/04/22 08:30:36;;;;;;;2.63;2.63;;;10.70;99.90;;;;;;4195189;28;20648;-52
2022/04/22 08:32:39;;;;;;;1.27;1.27;;;10.70;99.90;;;;;;4195611;28;20094;-51
2022/04/22 08:34:41;;;;;;;1.48;1.48;;;10.70;99.90;;;;;;4195515;28;20052;-51
2022/04/22 08:36:45;;;;;;;1.40;1.40;;;10.60;99.90;;;;;;4195213;28;20045;-52
2022/04/22 08:38:48;;;;;;;1.80;1.80;;;10.50;99.90;;;;;;4195408;28;20381;-54
2022/04/22 08:40:51;;;;;;;1.17;1.17;;;10.60;99.90;;;;;;4195585;28;20585;-53
2022/04/22 08:42:53;;;;;;;1.45;1.42;;;10.70;99.90;;;;;;4195252;28;20048;-54
2022/04/22 08:44:58;;;;;;;1.20;1.20;;;10.70;99.90;;;;;;4227883;28;20584;-55
2022/04/22 08:51:44;;;;;;;1.40;1.40;;;10.50;99.90;;;;;;4195427;27;20396;-52
2022/04/22 08:53:50;;;;;;;1.10;1.10;;;10.40;99.90;;;;;;4195568;28;20041;-54
2022/04/22 08:55:57;;;;;;;1.10;1.10;;;10.40;99.90;;;;;;4195266;28;20048;-54
2022/04/22 08:58:03;;;;;;;1.20;1.10;;;10.40;99.90;;;;;;4195099;28;20529;-54
2022/04/22 09:00:12;;;;;;;1.00;1.00;;;10.50;99.90;;;;;;4195156;28;20098;-54
2022/04/22 09:02:20;;;;;;;1.00;1.00;;;10.60;99.90;;;;;;4195316;28;20045;-53
2022/04/22 09:04:23;;;;;;;1.10;1.10;;;10.60;99.90;;;;;;4194841;28;20654;-53
2022/04/22 09:06:25;;;;;;;2.67;1.30;;;10.60;99.90;;;;;;4202719;28;20534;-52
2022/04/22 09:08:28;;;;;;;1.10;1.10;;;10.50;99.90;;;;;;4202725;28;20474;-54
2022/04/22 09:10:30;;;;;;;0.98;0.98;;;10.50;99.90;;;;;;4195009;28;20439;-53
2022/04/22 09:12:34;;;;;;;1.25;1.05;;;10.60;99.90;;;;;;4208377;28;20474;-53
2022/04/22 09:14:46;;;;;;;1.10;1.10;;;10.70;99.90;;;;;;4195739;28;20055;-51
2022/04/22 09:16:50;;;;;;;3.83;3.42;;;10.70;99.90;;;;;;4194152;28;20051;-52
2022/04/22 09:19:00;;;;;;;7.75;7.45;;;10.80;99.90;;;;;;4195312;28;20041;-52
2022/04/22 09:21:04;;;;;;;6.50;6.07;;;10.80;99.90;;;;;;4194486;28;20056;-52
2022/04/22 09:23:33;;;;;;;4.35;4.15;;;11.00;99.90;;;;;;4194633;28;20155;-54
2022/04/22 09:25:41;;;;;;;1.10;1.10;;;11.00;99.90;;;;;;4194881;28;20057;-53
2022/04/22 09:27:43;;;;;;;1.10;1.10;;;10.90;99.90;;;;;;4194692;28;20093;-52
2022/04/22 09:29:53;;;;;;;1.35;1.35;;;10.70;99.90;;;;;;4194292;28;20132;-53
2022/04/22 09:31:55;;;;;;;1.55;1.55;;;10.70;99.90;;;;;;4194406;28;20504;-54
2022/04/22 09:33:58;;;;;;;1.80;1.27;;;10.70;99.90;;;;;;4194451;28;20114;-53
2022/04/22 09:43:14;;;;;;;1.40;1.30;;;10.90;99.90;;;;;;4195952;28;20356;-52
2022/04/22 09:45:16;;;;;;;1.30;1.30;;;11.00;99.90;;;;;;4194292;28;20060;-52
2022/04/22 09:47:20;;;;;;;1.88;1.77;;;11.10;99.90;;;;;;4194744;28;20048;-53
2022/04/22 09:49:44;;;;;;;1.55;1.55;;;11.00;99.90;;;;;;4196036;28;20056;-54
2022/04/22 09:52:04;;;;;;;1.40;1.40;;;11.00;99.90;;;;;;4194640;28;20053;-54
2022/04/22 09:54:10;;;;;;;1.15;1.15;;;10.90;99.90;;;;;;4209739;28;20427;-56
2022/04/22 09:56:12;;;;;;;1.20;1.20;;;10.90;99.90;;;;;;4196844;28;20236;-54
2022/04/22 09:58:25;;;;;;;1.40;1.30;;;10.80;99.90;;;;;;4194455;28;20091;-53
2022/04/22 10:00:28;;;;;;;;;;;10.80;99.90;;;;;;4194424;28;20136;-54
2022/04/22 10:02:31;;;;;;;2.28;2.17;;;10.70;99.90;;;;;;4195923;28;19924;-53
2022/04/22 10:04:38;;;;;;;2.35;2.25;;;10.60;99.90;;;;;;4194139;28;20458;-53
2022/04/22 10:06:42;;;;;;;1.65;1.65;;;10.60;99.90;;;;;;4193908;28;20118;-54
2022/04/22 10:08:46;;;;;;;2.38;2.28;;;10.60;99.90;;;;;;4212034;28;20052;-53
2022/04/22 10:10:51;;;;;;;1.10;1.10;;;10.80;99.90;;;;;;4193886;28;20403;-54
2022/04/22 10:12:59;;;;;;;1.20;1.20;;;10.50;99.90;;;;;;4197660;28;20037;-53
2022/04/22 10:15:03;;;;;;;1.30;1.30;;;10.80;99.90;;;;;;4194037;28;20049;-53
2022/04/22 10:17:06;;;;;;;4.10;3.85;;;10.80;99.90;;;;;;4194330;28;20454;-53
2022/04/22 10:19:09;;;;;;;2.22;2.13;;;10.90;99.90;;;;;;4198106;28;20044;-53
2022/04/22 10:21:12;;;;;;;1.10;1.10;;;10.80;99.90;;;;;;4193539;28;20047;-52
2022/04/22 10:23:18;;;;;;;2.17;2.17;;;10.70;99.90;;;;;;4193561;28;20053;-51
2022/04/22 10:25:20;;;;;;;1.90;1.80;;;10.80;99.90;;;;;;4193922;28;20044;-52
2022/04/22 10:27:22;;;;;;;1.10;1.10;;;11.10;99.90;;;;;;4195904;28;20094;-51
2022/04/22 10:29:25;;;;;;;1.70;1.30;;;11.00;99.90;;;;;;4201913;28;20420;-51
2022/04/22 10:31:28;;;;;;;1.08;1.08;;;11.10;99.90;;;;;;4199404;28;20047;-52
2022/04/22 10:33:44;;;;;;;1.02;1.02;;;11.00;99.90;;;;;;4197651;28;20032;-51
2022/04/22 10:35:47;;;;;;;1.35;1.35;;;10.80;99.90;;;;;;4195393;28;20038;-52
2022/04/22 10:37:51;;;;;;;1.17;1.17;;;11.00;99.90;;;;;;4200086;28;20456;-52
2022/04/22 10:39:57;;;;;;;1.10;1.10;;;11.30;99.90;;;;;;4196626;28;20561;-54
2022/04/22 10:41:59;;;;;;;1.00;1.00;;;11.20;99.90;;;;;;4195412;28;20055;-54
2022/04/22 10:49:36;;;;;;;1.50;1.40;;;10.90;99.90;;;;;;4193877;28;20045;-52
2022/04/22 10:51:59;;;;;;;1.58;1.58;;;10.70;99.90;;;;;;4189501;28;20522;-52
2022/04/22 10:54:01;;;;;;;1.52;1.52;;;10.70;99.90;;;;;;4188025;28;20049;-52
2022/04/22 10:56:28;;;;;;;4.22;1.63;;;10.80;99.90;;;;;;4189194;28;20097;-53
2022/04/22 10:58:30;;;;;;;2.00;1.55;;;11.00;99.90;;;;;;4195784;28;20127;-52
2022/04/22 11:00:36;;;;;;;1.73;1.73;;;11.00;99.90;;;;;;4191322;28;20492;-52
2022/04/22 11:02:40;;;;;;;2.00;1.90;;;10.90;99.90;;;;;;4188313;28;20078;-51
2022/04/22 11:04:42;;;;;;;2.17;2.10;;;10.90;99.90;;;;;;4185346;28;20478;-52
2022/04/22 11:06:44;;;;;;;2.70;2.08;;;10.80;99.90;;;;;;4190613;28;20071;-51
2022/04/22 11:09:02;;;;;;;2.50;1.70;;;10.80;99.90;;;;;;4197179;28;20478;-51
2022/04/22 11:11:09;;;;;;;1.48;1.48;;;10.90;99.90;;;;;;4189481;28;20044;-52
2022/04/22 11:13:34;;;;;;;1.80;1.80;;;11.00;99.90;;;;;;4184447;28;20434;-50
2022/04/22 11:15:43;;;;;;;6.38;3.72;;;10.90;99.90;;;;;;4186436;28;20075;-52
2022/04/22 11:17:54;;;;;;;1.98;1.58;;;10.80;99.90;;;;;;4184113;28;20565;-51
2022/04/22 11:19:59;;;;;;;1.38;1.35;;;10.80;99.90;;;;;;4190142;28;20059;-49
2022/04/22 11:22:02;;;;;;;1.27;1.17;;;10.80;99.90;;;;;;4187781;28;20427;-49
2022/04/22 11:24:09;;;;;;;1.20;1.00;;;10.80;99.90;;;;;;4173410;28;20049;-49
2022/04/22 11:26:17;;;;;;;1.50;1.45;;;10.70;99.90;;;;;;4204246;28;20052;-51
2022/04/22 11:28:21;;;;;;;1.77;1.77;;;10.70;99.90;;;;;;4195544;28;20086;-47
2022/04/22 11:30:26;;;;;;;1.20;1.20;;;10.70;99.90;;;;;;4198097;28;20052;-51
2022/04/22 11:32:33;;;;;;;1.20;1.20;;;10.70;99.90;;;;;;4195843;28;20048;-48
2022/04/22 11:35:14;;;;;;;3.25;2.15;;;10.70;99.90;;;;;;4195679;28;20045;-49
2022/04/22 11:37:18;;;;;;;3.90;3.70;;;10.90;99.90;;;;;;4187618;28;20462;-49
2022/04/22 11:39:22;;;;;;;2.05;1.55;;;11.00;99.90;;;;;;4199831;28;20098;-51
2022/04/22 11:41:24;;;;;;;1.20;1.20;;;10.90;99.90;;;;;;4199017;28;20052;-51
2022/04/22 11:43:30;;;;;;;2.45;2.38;;;10.90;99.90;;;;;;4206154;28;20123;-52
2022/04/22 11:45:35;;;;;;;1.40;1.30;;;10.90;99.90;;;;;;4195291;28;20131;-52
2022/04/22 11:47:38;;;;;;;1.40;1.40;;;10.90;99.90;;;;;;4196177;28;20404;-51